createdAt,value
2017-07-14T00:00:49.058Z,101434.99
2017-07-14T00:02:52.958Z,101441.44
2017-07-14T00:04:56.557Z,101442.80
2017-07-14T00:07:00.334Z,101439.91
2017-07-14T00:09:04.262Z,101439.97
2017-07-14T00:11:08.248Z,101441.50
2017-07-14T00:13:12.582Z,101437.56
2017-07-14T00:15:16.255Z,101433.73
2017-07-14T00:17:20.175Z,101435.59
2017-07-14T00:19:24.401Z,101432.75
2017-07-14T00:21:30.121Z,101423.45
2017-07-14T00:23:34.556Z,101417.75
2017-07-14T00:25:41.429Z,101418.61
2017-07-14T00:27:45.104Z,101420.50
2017-07-14T00:29:49.074Z,101406.87
2017-07-14T00:31:53.550Z,101407.03
2017-07-14T00:33:57.351Z,101401.87
2017-07-14T00:36:02.693Z,101404.30
2017-07-14T00:38:06.185Z,101402.97
2017-07-14T00:40:10.085Z,101399.06
2017-07-14T00:42:14.399Z,101392.03
2017-07-14T00:44:18.406Z,101393.30
2017-07-14T00:46:22.005Z,101392.20
2017-07-14T00:48:25.294Z,101395.53
2017-07-14T00:50:29.609Z,101395.87
2017-07-14T00:52:33.305Z,101401.16
2017-07-14T00:54:38.334Z,101403.28
2017-07-14T00:56:42.135Z,101400.52
2017-07-14T00:58:45.837Z,101388.91
2017-07-14T01:00:49.649Z,101387.92
2017-07-14T01:02:52.927Z,101384.72
2017-07-14T01:04:57.140Z,101387.09
2017-07-14T01:07:00.941Z,101382.97
2017-07-14T01:09:04.947Z,101387.13
2017-07-14T01:11:08.642Z,101382.38
2017-07-14T01:13:12.523Z,101378.84
2017-07-14T01:15:16.475Z,101371.42
2017-07-14T01:17:20.450Z,101374.03
2017-07-14T01:19:24.672Z,101367.62
2017-07-14T01:21:28.679Z,101374.09
2017-07-14T01:23:32.369Z,101375.55
2017-07-14T01:25:36.195Z,101375.81
2017-07-14T01:27:40.364Z,101373.60
2017-07-14T01:29:43.776Z,101368.38
2017-07-14T01:31:47.479Z,101362.49
2017-07-14T01:33:51.480Z,101359.42
2017-07-14T01:35:55.182Z,101357.69
2017-07-14T01:37:59.500Z,101363.15
2017-07-14T01:40:03.602Z,101356.11
2017-07-14T01:42:08.120Z,101352.33
2017-07-14T01:44:12.119Z,101351.71
2017-07-14T01:46:16.339Z,101345.14
2017-07-14T01:48:20.118Z,101345.87
2017-07-14T01:50:23.741Z,101340.05
2017-07-14T01:52:27.535Z,101347.22
2017-07-14T01:54:32.158Z,101345.02
2017-07-14T01:56:35.653Z,101339.63
2017-07-14T01:58:39.349Z,101333.67
2017-07-14T02:00:43.457Z,101337.34
2017-07-14T02:02:47.464Z,101340.28
2017-07-14T02:24:27.130Z,101335.44
2017-07-14T02:26:31.025Z,101330.05
2017-07-14T02:28:35.033Z,101330.27
2017-07-14T02:30:39.037Z,101326.93
2017-07-14T02:32:42.636Z,101328.27
2017-07-14T02:34:48.591Z,101328.36
2017-07-14T02:36:52.637Z,101329.13
2017-07-14T02:38:56.908Z,101324.94
2017-07-14T02:41:01.014Z,101328.55
2017-07-14T02:43:04.817Z,101321.95
2017-07-14T02:45:08.936Z,101325.23
2017-07-14T02:47:12.726Z,101329.44
2017-07-14T02:49:16.737Z,101328.06
2017-07-14T02:51:21.350Z,101321.05
2017-07-14T02:53:25.562Z,101326.98
2017-07-14T02:55:29.780Z,101327.34
2017-07-14T02:57:33.889Z,101330.06
2017-07-14T02:59:38.207Z,101337.49
2017-07-14T03:01:42.099Z,101338.00
2017-07-14T03:03:46.002Z,101333.91
2017-07-14T03:05:49.704Z,101337.14
2017-07-14T03:07:54.105Z,101331.48
2017-07-14T03:09:57.923Z,101324.53
2017-07-14T03:12:02.093Z,101324.66
2017-07-14T03:14:06.341Z,101333.62
2017-07-14T03:16:10.960Z,101329.91
2017-07-14T03:18:14.970Z,101326.92
2017-07-14T03:20:18.962Z,101319.33
2017-07-14T03:22:23.287Z,101312.02
2017-07-14T03:24:26.968Z,101321.17
2017-07-14T03:26:30.887Z,101323.90
2017-07-14T03:28:35.726Z,101324.66
2017-07-14T03:30:38.904Z,101320.53
2017-07-14T03:32:43.115Z,101330.05
2017-07-14T03:34:47.119Z,101327.72
2017-07-14T03:36:50.794Z,101324.47
2017-07-14T03:38:54.823Z,101322.47
2017-07-14T03:40:58.700Z,101328.59
2017-07-14T03:43:06.719Z,101330.69
2017-07-14T03:45:11.248Z,101333.23
2017-07-14T03:47:14.536Z,101329.66
2017-07-14T03:49:18.440Z,101332.89
2017-07-14T03:51:22.599Z,101329.15
2017-07-14T03:53:26.862Z,101328.63
2017-07-14T03:55:30.866Z,101334.59
2017-07-14T03:57:35.077Z,101332.26
2017-07-14T03:59:38.988Z,101326.86
2017-07-14T04:01:42.885Z,101333.48
2017-07-14T04:03:46.584Z,101327.80
2017-07-14T04:05:49.981Z,101328.79
2017-07-14T04:07:55.005Z,101330.48
2017-07-14T04:09:59.114Z,101334.59
2017-07-14T04:12:03.021Z,101333.03
2017-07-14T04:14:06.718Z,101332.89
2017-07-14T04:16:10.828Z,101333.60
2017-07-14T04:18:17.706Z,101331.68
2017-07-14T04:20:21.811Z,101331.48
2017-07-14T04:22:26.121Z,101334.53
2017-07-14T04:24:30.209Z,101325.25
2017-07-14T04:26:34.336Z,101327.59
2017-07-14T04:28:38.129Z,101324.95
2017-07-14T04:30:42.352Z,101333.33
2017-07-14T04:32:45.844Z,101331.84
2017-07-14T04:34:49.672Z,101332.33
2017-07-14T04:36:54.572Z,101337.59
2017-07-14T04:38:58.885Z,101338.08
2017-07-14T04:41:02.790Z,101338.37
2017-07-14T04:43:06.090Z,101330.98
2017-07-14T04:45:10.708Z,101338.66
2017-07-14T04:47:14.913Z,101332.17
2017-07-14T04:49:18.413Z,101338.70
2017-07-14T04:51:23.231Z,101340.05
2017-07-14T04:53:27.134Z,101343.83
2017-07-14T04:55:31.754Z,101338.21
2017-07-14T04:57:36.272Z,101336.42
2017-07-14T04:59:40.421Z,101338.51
2017-07-14T05:01:45.106Z,101333.53
2017-07-14T05:03:48.802Z,101328.84
2017-07-14T05:05:52.683Z,101327.65
2017-07-14T05:07:56.611Z,101328.41
2017-07-14T05:10:00.702Z,101326.83
2017-07-14T05:12:04.826Z,101330.28
2017-07-14T05:14:08.222Z,101333.91
2017-07-14T05:16:12.228Z,101327.65
2017-07-14T05:18:15.514Z,101325.44
2017-07-14T05:20:19.933Z,101324.95
2017-07-14T05:22:23.631Z,101329.19
2017-07-14T05:24:28.557Z,101324.45
2017-07-14T05:26:32.563Z,101324.53
2017-07-14T05:28:36.453Z,101324.88
2017-07-14T05:30:40.988Z,101322.52
2017-07-14T05:32:45.378Z,101328.91
2017-07-14T05:34:49.509Z,101321.39
2017-07-14T05:36:53.116Z,101327.98
2017-07-14T05:38:57.726Z,101324.66
2017-07-14T05:41:02.039Z,101324.43
2017-07-14T05:43:05.943Z,101328.46
2017-07-14T05:45:12.108Z,101328.88
2017-07-14T05:47:16.622Z,101330.01
2017-07-14T05:49:21.655Z,101326.06
2017-07-14T05:51:26.069Z,101322.94
2017-07-14T05:53:31.507Z,101320.58
2017-07-14T05:55:36.793Z,101325.70
2017-07-14T05:57:41.369Z,101326.97
2017-07-14T05:59:45.580Z,101327.30
2017-07-14T06:01:49.678Z,101322.07
2017-07-14T06:03:53.281Z,101325.60
2017-07-14T06:05:59.001Z,101326.41
2017-07-14T06:08:03.447Z,101326.73
2017-07-14T06:10:07.864Z,101324.94
2017-07-14T06:12:11.552Z,101326.03
2017-07-14T06:14:14.849Z,101327.44
2017-07-14T06:16:19.259Z,101331.07
2017-07-14T06:18:23.366Z,101325.73
2017-07-14T06:20:27.480Z,101330.38
2017-07-14T06:22:31.383Z,101325.28
2017-07-14T06:24:35.850Z,101327.44
2017-07-14T06:26:40.523Z,101328.09
2017-07-14T06:28:45.711Z,101325.44
2017-07-14T06:30:50.176Z,101332.37
2017-07-14T06:32:54.178Z,101332.28
2017-07-14T06:34:58.593Z,101330.09
2017-07-14T06:37:01.785Z,101331.66
2017-07-14T06:39:06.098Z,101333.30
2017-07-14T06:41:09.894Z,101331.36
2017-07-14T06:43:13.494Z,101322.63
2017-07-14T06:45:17.904Z,101320.63
2017-07-14T06:47:22.626Z,101314.54
2017-07-14T06:49:26.841Z,101317.38
2017-07-14T06:51:30.848Z,101313.66
2017-07-14T06:53:35.438Z,101318.61
2017-07-14T06:55:39.785Z,101317.91
2017-07-14T06:57:43.688Z,101313.72
2017-07-14T06:59:47.589Z,101310.80
2017-07-14T07:01:52.006Z,101319.44
2017-07-14T07:03:55.803Z,101317.84
2017-07-14T07:06:01.755Z,101324.87
2017-07-14T07:08:05.558Z,101325.42
2017-07-14T07:10:10.079Z,101327.87
2017-07-14T07:12:14.158Z,101326.23
2017-07-14T07:14:18.090Z,101329.99
2017-07-14T07:16:22.093Z,101330.42
2017-07-14T07:18:26.076Z,101329.82
2017-07-14T07:20:32.362Z,101333.62
2017-07-14T07:22:37.700Z,101339.80
2017-07-14T07:24:41.293Z,101340.05
2017-07-14T07:26:45.403Z,101342.68
2017-07-14T07:28:49.060Z,101344.16
2017-07-14T07:30:52.986Z,101343.99
2017-07-14T07:32:57.219Z,101345.68
2017-07-14T07:35:00.890Z,101349.23
2017-07-14T07:37:05.449Z,101348.18
2017-07-14T07:39:10.363Z,101346.83
2017-07-14T07:41:15.091Z,101345.90
2017-07-14T07:43:19.509Z,101343.53
2017-07-14T07:45:22.890Z,101350.03
2017-07-14T07:47:31.913Z,101346.31
2017-07-14T07:49:35.306Z,101342.59
2017-07-14T07:51:39.714Z,101336.75
2017-07-14T07:53:43.933Z,101340.61
2017-07-14T07:55:48.040Z,101343.31
2017-07-14T07:57:51.851Z,101334.91
2017-07-14T07:59:56.567Z,101335.15
2017-07-14T08:02:00.557Z,101329.14
2017-07-14T08:04:09.397Z,101335.28
2017-07-14T08:06:12.987Z,101328.94
2017-07-14T08:08:16.893Z,101325.30
2017-07-14T08:10:20.899Z,101319.80
2017-07-14T08:12:24.697Z,101315.45
2017-07-14T08:14:28.807Z,101314.42
2017-07-14T08:16:32.506Z,101316.20
2017-07-14T08:18:36.613Z,101316.00
2017-07-14T08:20:40.327Z,101311.09
2017-07-14T08:22:43.909Z,101318.28
2017-07-14T08:24:47.816Z,101313.53
2017-07-14T08:26:51.822Z,101319.38
2017-07-14T08:28:55.831Z,101321.78
2017-07-14T08:30:59.427Z,101320.22
2017-07-14T08:33:03.941Z,101328.88
2017-07-14T08:35:07.748Z,101323.56
2017-07-14T08:37:12.124Z,101323.77
2017-07-14T08:39:16.145Z,101327.23
2017-07-14T08:41:20.075Z,101327.45
2017-07-14T08:43:23.266Z,101329.60
2017-07-14T08:45:27.570Z,101317.63
2017-07-14T08:47:31.578Z,101331.75
2017-07-14T08:49:36.093Z,101318.52
2017-07-14T08:51:41.001Z,101321.59
2017-07-14T08:53:45.029Z,101320.88
2017-07-14T08:55:49.344Z,101320.70
2017-07-14T08:57:54.377Z,101321.63
2017-07-14T08:59:58.073Z,101323.32
2017-07-14T09:02:02.181Z,101316.85
2017-07-14T09:04:06.598Z,101318.75
2017-07-14T09:06:11.220Z,101314.39
2017-07-14T09:08:15.532Z,101312.83
2017-07-14T09:10:22.613Z,101310.78
2017-07-14T09:12:27.715Z,101316.11
2017-07-14T09:14:32.756Z,101310.48
2017-07-14T09:16:39.746Z,101304.73
2017-07-14T09:18:44.163Z,101306.09
2017-07-14T09:20:47.740Z,101307.36
2017-07-14T09:22:52.029Z,101314.46
2017-07-14T09:24:56.943Z,101308.63
2017-07-14T09:27:01.522Z,101309.77
2017-07-14T09:29:05.218Z,101312.47
2017-07-14T09:31:09.428Z,101306.37
2017-07-14T09:33:13.947Z,101312.66
2017-07-14T09:35:17.647Z,101310.47
2017-07-14T09:37:21.962Z,101304.96
2017-07-14T09:39:27.805Z,101311.31
2017-07-14T09:41:33.191Z,101305.69
2017-07-14T09:43:37.367Z,101315.70
2017-07-14T09:45:40.846Z,101305.20
2017-07-14T09:47:44.273Z,101310.02
2017-07-14T09:49:47.836Z,101312.44
2017-07-14T09:51:51.226Z,101308.76
2017-07-14T09:53:54.722Z,101314.89
2017-07-14T09:55:58.425Z,101309.02
2017-07-14T09:58:02.529Z,101314.74
2017-07-14T10:00:06.228Z,101308.63
2017-07-14T10:02:10.029Z,101299.33
2017-07-14T10:04:13.629Z,101300.52
2017-07-14T10:06:17.430Z,101299.46
2017-07-14T10:08:20.970Z,101297.51
2017-07-14T10:10:25.030Z,101298.20
2017-07-14T10:12:28.632Z,101294.83
2017-07-14T10:14:32.532Z,101298.11
2017-07-14T10:16:36.537Z,101302.77
2017-07-14T10:18:40.135Z,101306.23
2017-07-14T10:20:43.833Z,101303.80
2017-07-14T10:22:47.429Z,101299.61
2017-07-14T10:24:50.840Z,101291.15
2017-07-14T10:26:54.320Z,101285.31
2017-07-14T10:28:58.430Z,101293.02
2017-07-14T10:31:01.920Z,101289.05
2017-07-14T10:33:05.617Z,101291.66
2017-07-14T10:35:10.237Z,101291.19
2017-07-14T10:37:14.349Z,101288.72
2017-07-14T10:39:18.164Z,101294.64
2017-07-14T10:41:22.050Z,101293.23
2017-07-14T10:43:25.755Z,101291.03
2017-07-14T10:45:29.859Z,101295.49
2017-07-14T10:47:33.868Z,101296.76
2017-07-14T10:49:37.532Z,101297.69
2017-07-14T10:51:41.058Z,101287.97
2017-07-14T10:53:44.657Z,101293.27
2017-07-14T10:55:49.582Z,101299.83
2017-07-14T10:57:53.464Z,101300.09
2017-07-14T10:59:57.291Z,101297.81
2017-07-14T11:02:01.333Z,101294.47
2017-07-14T11:04:05.300Z,101296.88
2017-07-14T11:06:09.826Z,101296.36
2017-07-14T11:08:13.619Z,101288.90
2017-07-14T11:10:17.830Z,101289.92
2017-07-14T11:12:21.840Z,101289.02
2017-07-14T11:14:25.846Z,101288.81
2017-07-14T11:16:29.542Z,101290.38
2017-07-14T11:18:34.268Z,101290.25
2017-07-14T11:20:37.865Z,101286.41
2017-07-14T11:22:42.686Z,101290.25
2017-07-14T11:24:47.829Z,101287.63
2017-07-14T11:26:52.648Z,101283.75
2017-07-14T11:28:56.651Z,101287.00
2017-07-14T11:31:00.766Z,101288.18
2017-07-14T11:33:06.655Z,101278.81
2017-07-14T11:35:11.537Z,101282.37
2017-07-14T11:37:16.570Z,101280.92
2017-07-14T11:39:20.784Z,101284.56
2017-07-14T11:41:25.911Z,101287.30
2017-07-14T11:43:30.130Z,101282.73
2017-07-14T11:45:33.929Z,101278.66
2017-07-14T11:47:38.442Z,101276.23
2017-07-14T11:49:42.839Z,101277.28
2017-07-14T11:51:46.663Z,101274.23
2017-07-14T11:53:51.404Z,101269.88
2017-07-14T11:55:55.183Z,101266.65
2017-07-14T11:57:58.758Z,101259.25
2017-07-14T12:00:03.092Z,101263.31
2017-07-14T12:02:07.658Z,101261.32
2017-07-14T12:04:11.208Z,101255.13
2017-07-14T12:06:14.677Z,101261.74
2017-07-14T12:08:18.958Z,101258.19
2017-07-14T12:10:23.226Z,101255.91
2017-07-14T12:12:27.439Z,101255.48
2017-07-14T12:14:32.058Z,101255.09
2017-07-14T12:16:36.273Z,101258.52
2017-07-14T12:18:40.893Z,101261.27
2017-07-14T12:20:46.853Z,101252.80
2017-07-14T12:22:51.052Z,101251.05
2017-07-14T12:24:54.962Z,101251.57
2017-07-14T12:26:59.067Z,101253.86
2017-07-14T12:29:03.354Z,101250.42
2017-07-14T12:31:07.285Z,101252.64
2017-07-14T12:33:10.341Z,101253.16
2017-07-14T12:35:14.374Z,101252.62
2017-07-14T12:37:18.378Z,101252.80
2017-07-14T12:39:22.257Z,101253.34
2017-07-14T12:41:26.903Z,101260.13
2017-07-14T12:43:30.604Z,101263.85
2017-07-14T12:45:34.406Z,101275.62
2017-07-14T12:47:38.115Z,101283.96
2017-07-14T12:49:42.127Z,101287.63
2017-07-14T12:51:46.091Z,101274.06
2017-07-14T12:53:50.043Z,101268.04
2017-07-14T12:55:53.928Z,101275.84
2017-07-14T12:57:57.626Z,101273.34
2017-07-14T13:00:01.631Z,101266.86
2017-07-14T13:02:05.946Z,101272.47
2017-07-14T13:04:09.133Z,101269.81
2017-07-14T13:06:13.244Z,101267.23
2017-07-14T13:08:17.660Z,101265.00
2017-07-14T13:10:20.942Z,101274.75
2017-07-14T13:12:25.153Z,101289.59
2017-07-14T13:14:28.856Z,101295.22
2017-07-14T13:16:32.840Z,101297.17
2017-07-14T13:18:36.250Z,101301.36
2017-07-14T13:20:40.972Z,101309.11
2017-07-14T13:22:44.818Z,101308.29
2017-07-14T13:24:48.576Z,101307.95
2017-07-14T13:26:53.196Z,101296.24
2017-07-14T13:28:57.100Z,101302.17
2017-07-14T13:31:00.801Z,101298.05
2017-07-14T13:33:05.120Z,101287.82
2017-07-14T13:35:09.119Z,101293.23
2017-07-14T13:37:12.714Z,101288.72
2017-07-14T13:39:17.030Z,101291.34
2017-07-14T13:41:20.940Z,101289.35
2017-07-14T13:43:25.146Z,101291.55
2017-07-14T13:45:29.989Z,101293.53
2017-07-14T13:47:33.394Z,101295.81
2017-07-14T13:49:37.572Z,101295.86
2017-07-14T13:51:42.601Z,101291.37
2017-07-14T13:53:46.716Z,101288.45
2017-07-14T13:55:50.718Z,101295.34
2017-07-14T13:57:54.725Z,101290.77
2017-07-14T13:59:58.298Z,101297.87
2017-07-14T14:02:01.814Z,101298.30
2017-07-14T14:04:05.416Z,101306.30
2017-07-14T14:06:09.416Z,101308.37
2017-07-14T14:08:13.195Z,101311.42
2017-07-14T14:10:17.127Z,101313.28
2017-07-14T14:12:21.953Z,101317.22
2017-07-14T14:14:25.853Z,101323.81
2017-07-14T14:16:29.448Z,101329.30
2017-07-14T14:18:33.025Z,101324.66
2017-07-14T14:20:38.483Z,101324.23
2017-07-14T14:22:42.184Z,101331.34
2017-07-14T14:24:45.372Z,101334.72
2017-07-14T14:26:49.272Z,101337.81
2017-07-14T14:28:52.947Z,101336.13
2017-07-14T14:30:57.291Z,101336.59
2017-07-14T14:33:00.871Z,101329.02
2017-07-14T14:35:05.504Z,101335.42
2017-07-14T14:37:09.614Z,101337.36
2017-07-14T14:39:13.003Z,101334.44
2017-07-14T14:41:16.780Z,101333.84
2017-07-14T14:43:20.505Z,101335.37
2017-07-14T14:45:25.021Z,101336.72
2017-07-14T14:47:29.233Z,101331.30
2017-07-14T14:49:32.711Z,101332.50
2017-07-14T14:51:36.937Z,101338.09
2017-07-14T14:53:40.430Z,101334.55
2017-07-14T14:55:43.825Z,101331.84
2017-07-14T14:57:48.037Z,101330.78
2017-07-14T14:59:53.373Z,101339.00
2017-07-14T15:01:56.866Z,101333.58
2017-07-14T15:04:00.667Z,101325.54
2017-07-14T15:06:04.878Z,101337.85
2017-07-14T15:08:08.781Z,101334.09
2017-07-14T15:10:12.791Z,101337.73
2017-07-14T15:12:16.694Z,101330.03
2017-07-14T15:14:20.594Z,101334.94
2017-07-14T15:16:24.499Z,101329.60
2017-07-14T15:18:28.916Z,101333.91
2017-07-14T15:20:33.538Z,101335.86
2017-07-14T15:22:37.258Z,101340.38
2017-07-14T15:24:40.938Z,101335.28
2017-07-14T15:26:44.534Z,101336.97
2017-07-14T15:28:48.206Z,101337.33
2017-07-14T15:30:52.751Z,101348.76
2017-07-14T15:32:56.548Z,101354.05
2017-07-14T15:35:01.071Z,101358.78
2017-07-14T15:37:05.168Z,101353.64
2017-07-14T15:39:11.643Z,101352.84
2017-07-14T15:41:15.551Z,101362.86
2017-07-14T15:43:21.708Z,101367.14
2017-07-14T15:45:26.942Z,101358.67
2017-07-14T15:47:30.543Z,101368.77
2017-07-14T15:49:34.563Z,101367.34
2017-07-14T15:51:38.854Z,101362.97
2017-07-14T15:53:43.372Z,101371.02
2017-07-14T15:55:46.860Z,101373.67
2017-07-14T15:57:50.258Z,101377.19
2017-07-14T15:59:53.750Z,101369.56
2017-07-14T16:01:57.348Z,101378.50
2017-07-14T16:04:00.945Z,101378.37
2017-07-14T16:06:05.467Z,101385.01
2017-07-14T16:08:08.956Z,101384.55
2017-07-14T16:10:13.985Z,101390.38
2017-07-14T16:12:18.302Z,101398.38
2017-07-14T16:14:23.947Z,101398.81
2017-07-14T16:16:27.641Z,101398.30
2017-07-14T16:18:32.162Z,101395.25
2017-07-14T16:20:35.771Z,101397.55
2017-07-14T16:22:39.866Z,101395.68
2017-07-14T16:24:49.719Z,101399.98
2017-07-14T16:26:53.489Z,101400.12
2017-07-14T16:28:57.473Z,101398.08
2017-07-14T16:31:01.934Z,101393.77
2017-07-14T16:33:05.841Z,101395.80
2017-07-14T16:35:09.841Z,101391.95
2017-07-14T16:37:13.850Z,101398.72
2017-07-14T16:39:17.765Z,101402.31
2017-07-14T16:41:21.861Z,101405.53
2017-07-14T16:43:25.313Z,101402.91
2017-07-14T16:45:29.777Z,101402.06
2017-07-14T16:47:33.365Z,101403.20
2017-07-14T16:49:37.172Z,101403.41
2017-07-14T16:51:40.764Z,101407.05
2017-07-14T16:53:44.674Z,101408.28
2017-07-14T16:55:49.174Z,101410.19
2017-07-14T16:57:53.401Z,101407.19
2017-07-14T16:59:57.197Z,101407.01
2017-07-14T17:02:01.079Z,101402.31
2017-07-14T17:04:06.443Z,101400.75
2017-07-14T17:06:11.041Z,101398.84
2017-07-14T17:08:15.065Z,101402.06
2017-07-14T17:10:19.393Z,101402.61
2017-07-14T17:12:23.593Z,101408.62
2017-07-14T17:14:27.943Z,101414.45
2017-07-14T17:16:32.423Z,101409.42
2017-07-14T17:18:37.862Z,101415.09
2017-07-14T17:20:41.890Z,101411.62
2017-07-14T17:22:45.772Z,101415.98
2017-07-14T17:24:50.188Z,101419.66
2017-07-14T17:26:53.891Z,101426.90
2017-07-14T17:28:58.307Z,101423.13
2017-07-14T17:31:01.781Z,101420.59
2017-07-14T17:33:06.114Z,101425.92
2017-07-14T17:35:10.326Z,101428.59
2017-07-14T17:37:14.130Z,101428.50
2017-07-14T17:39:17.720Z,101426.86
2017-07-14T17:41:21.591Z,101428.97
2017-07-14T17:43:26.242Z,101422.20
2017-07-14T17:45:32.197Z,101426.94
2017-07-14T17:47:36.719Z,101426.90
2017-07-14T17:49:41.337Z,101421.91
2017-07-14T17:51:44.928Z,101417.55
2017-07-14T17:53:48.323Z,101411.92
2017-07-14T17:55:51.815Z,101419.41
2017-07-14T17:57:56.031Z,101414.50
2017-07-14T18:00:00.423Z,101412.39
2017-07-14T18:02:04.247Z,101421.19
2017-07-14T18:04:07.842Z,101429.39
2017-07-14T18:06:12.566Z,101421.61
2017-07-14T18:08:16.677Z,101431.59
2017-07-14T18:10:21.702Z,101431.47
2017-07-14T18:12:26.220Z,101433.16
2017-07-14T18:14:30.741Z,101428.88
2017-07-14T18:16:35.050Z,101432.73
2017-07-14T18:18:38.858Z,101435.66
2017-07-14T18:20:46.238Z,101435.83
2017-07-14T18:22:50.276Z,101439.59
2017-07-14T18:24:55.480Z,101439.09
2017-07-14T18:27:01.031Z,101443.57
2017-07-14T18:29:05.132Z,101439.38
2017-07-14T18:31:09.014Z,101440.64
2017-07-14T18:33:13.020Z,101442.73
2017-07-14T18:35:17.563Z,101442.12
2017-07-14T18:37:22.281Z,101440.22
2017-07-14T18:39:26.497Z,101450.08
2017-07-14T18:41:30.869Z,101445.89
2017-07-14T18:43:35.868Z,101446.32
2017-07-14T18:45:39.836Z,101450.80
2017-07-14T18:47:44.570Z,101449.19
2017-07-14T18:49:47.838Z,101462.91
2017-07-14T18:51:52.067Z,101463.83
2017-07-14T18:53:56.486Z,101460.91
2017-07-14T18:56:00.689Z,101468.41
2017-07-14T18:58:06.035Z,101468.41
2017-07-14T19:00:10.643Z,101465.48
2017-07-14T19:02:14.963Z,101466.33
2017-07-14T19:04:18.872Z,101474.88
2017-07-14T19:06:22.907Z,101471.73
2017-07-14T19:08:27.903Z,101473.69
2017-07-14T19:10:31.595Z,101475.42
2017-07-14T19:12:35.915Z,101479.14
2017-07-14T19:14:39.501Z,101478.92
2017-07-14T19:16:43.459Z,101475.97
2017-07-14T19:18:47.230Z,101476.39
2017-07-14T19:20:51.639Z,101482.05
2017-07-14T19:22:55.425Z,101483.16
2017-07-14T19:24:59.670Z,101481.08
2017-07-14T19:27:04.882Z,101484.34
2017-07-14T19:29:08.367Z,101488.91
2017-07-14T19:31:12.796Z,101489.37
2017-07-14T19:33:16.898Z,101490.04
2017-07-14T19:35:20.801Z,101495.67
2017-07-14T19:37:25.121Z,101489.50
2017-07-14T19:39:29.941Z,101489.37
2017-07-14T19:41:34.358Z,101496.14
2017-07-14T19:43:38.672Z,101509.16
2017-07-14T19:45:42.577Z,101501.13
2017-07-14T19:47:46.583Z,101509.03
2017-07-14T19:49:50.185Z,101506.66
2017-07-14T19:51:54.490Z,101506.49
2017-07-14T19:53:58.807Z,101511.17
2017-07-14T19:56:03.005Z,101517.02
2017-07-14T19:58:07.137Z,101519.18
2017-07-14T20:00:13.692Z,101522.31
2017-07-14T20:02:17.902Z,101522.85
2017-07-14T20:04:22.422Z,101522.52
2017-07-14T20:06:27.251Z,101527.25
2017-07-14T20:08:31.466Z,101523.73
2017-07-14T20:10:35.563Z,101522.80
2017-07-14T20:12:39.265Z,101531.42
2017-07-14T20:14:43.897Z,101534.86
2017-07-14T20:16:48.303Z,101538.84
2017-07-14T20:18:51.712Z,101537.57
2017-07-14T20:20:55.911Z,101537.41
2017-07-14T20:23:00.646Z,101531.42
2017-07-14T20:25:04.617Z,101541.75
2017-07-14T20:27:08.949Z,101542.98
2017-07-14T20:29:12.617Z,101541.75
2017-07-14T20:31:16.957Z,101547.47
2017-07-14T20:33:20.964Z,101545.89
2017-07-14T20:35:24.461Z,101547.84
2017-07-14T20:37:27.552Z,101550.80
2017-07-14T20:39:31.961Z,101552.61
2017-07-14T20:41:36.455Z,101562.30
2017-07-14T20:43:41.304Z,101555.23
2017-07-14T20:45:44.899Z,101558.70
2017-07-14T20:47:48.700Z,101570.01
2017-07-14T20:49:52.614Z,101566.96
2017-07-14T20:51:56.415Z,101563.24
2017-07-14T20:54:00.739Z,101574.38
2017-07-14T20:56:04.932Z,101579.36
2017-07-14T20:58:09.865Z,101579.78
2017-07-14T21:00:14.068Z,101579.20
2017-07-14T21:02:18.587Z,101583.59
2017-07-14T21:04:22.593Z,101585.63
2017-07-14T21:06:26.184Z,101587.69
2017-07-14T21:08:30.505Z,101595.89
2017-07-14T21:10:34.203Z,101597.80
2017-07-14T21:12:38.310Z,101597.47
2017-07-14T21:14:42.834Z,101601.58
2017-07-14T21:16:46.527Z,101600.42
2017-07-14T21:18:50.433Z,101599.92
2017-07-14T21:20:54.032Z,101598.42
2017-07-14T21:22:59.467Z,101600.28
2017-07-14T21:25:03.268Z,101601.52
2017-07-14T21:27:07.074Z,101604.23
2017-07-14T21:29:10.981Z,101605.19
2017-07-14T21:31:15.389Z,101605.08
2017-07-14T21:33:19.601Z,101603.84
2017-07-14T21:35:23.810Z,101602.66
2017-07-14T21:37:27.806Z,101606.85
2017-07-14T21:39:32.236Z,101611.84
2017-07-14T21:41:36.140Z,101607.78
2017-07-14T21:43:39.842Z,101610.69
2017-07-14T21:45:44.152Z,101614.55
2017-07-14T21:47:49.185Z,101619.03
2017-07-14T21:49:54.524Z,101612.69
2017-07-14T21:51:59.559Z,101620.33
2017-07-14T21:54:03.968Z,101623.66
2017-07-14T21:56:08.522Z,101621.12
2017-07-14T21:58:13.002Z,101621.97
2017-07-14T22:00:17.724Z,101617.98
2017-07-14T22:02:22.359Z,101626.53
2017-07-14T22:04:26.410Z,101623.17
2017-07-14T22:06:30.443Z,101625.38
2017-07-14T22:08:35.129Z,101629.73
2017-07-14T22:10:38.513Z,101630.16
2017-07-14T22:12:42.887Z,101625.28
2017-07-14T22:14:46.793Z,101625.45
2017-07-14T22:16:50.593Z,101636.36
2017-07-14T22:18:55.110Z,101632.55
2017-07-14T22:20:58.607Z,101630.35
2017-07-14T22:23:02.718Z,101636.19
2017-07-14T22:25:06.617Z,101641.97
2017-07-14T22:27:11.441Z,101635.70
2017-07-14T22:29:15.042Z,101640.61
2017-07-14T22:31:18.634Z,101640.21
2017-07-14T22:33:23.050Z,101645.03
2017-07-14T22:35:26.443Z,101647.40
2017-07-14T22:37:30.960Z,101648.67
2017-07-14T22:39:34.966Z,101646.27
2017-07-14T22:41:38.772Z,101652.16
2017-07-14T22:43:42.983Z,101650.02
2017-07-14T22:45:46.961Z,101647.05
2017-07-14T22:47:51.093Z,101643.28
2017-07-14T22:49:55.303Z,101643.62
2017-07-14T22:51:59.310Z,101645.12
2017-07-14T22:54:03.625Z,101645.14
2017-07-14T22:56:07.781Z,101646.63
2017-07-14T22:58:11.126Z,101642.77
2017-07-14T23:00:14.868Z,101641.73
2017-07-14T23:02:19.346Z,101641.92
2017-07-14T23:04:23.680Z,101645.28
2017-07-14T23:06:27.250Z,101648.34
2017-07-14T23:08:30.745Z,101649.95
2017-07-14T23:10:36.089Z,101650.47
2017-07-14T23:12:39.781Z,101655.03
2017-07-14T23:14:43.890Z,101659.94
2017-07-14T23:16:47.895Z,101657.45
2017-07-14T23:18:51.804Z,101659.61
2017-07-14T23:20:56.419Z,101661.39
2017-07-14T23:23:00.020Z,101661.59
2017-07-14T23:25:04.427Z,101653.53
2017-07-14T23:27:08.236Z,101651.56
2017-07-14T23:29:11.932Z,101656.52
2017-07-14T23:31:15.634Z,101657.17
2017-07-14T23:33:19.330Z,101658.09
2017-07-14T23:35:22.827Z,101652.77
2017-07-14T23:37:26.523Z,101656.23
2017-07-14T23:39:30.734Z,101658.38
2017-07-14T23:41:34.638Z,101666.23
2017-07-14T23:43:38.546Z,101664.29
2017-07-14T23:45:42.346Z,101668.43
2017-07-14T23:47:46.659Z,101672.27
2017-07-14T23:49:51.693Z,101671.84
2017-07-14T23:51:55.804Z,101677.54
2017-07-14T23:53:59.316Z,101676.55
2017-07-14T23:56:03.502Z,101677.05